Time;durP1;ratioP1;P1;durP2;ratioP2;P2;SDS_P1;SDS_P2;PMS_P1;PMS_P2;Temp;Humidity;BMP_temperature;BMP_pressure;BME280_temperature;BME280_humidity;BME280_pressure;Samples;Min_cycle;Max_cycle;Signal;HPM_P1;HPM_P2
2022/01/11 00:01:42;;;;;;;56.20;32.83;;;4.60;99.90;;;;;;5120798;27;20439;-77
2022/01/11 00:04:09;;;;;;;62.53;32.90;;;4.50;99.90;;;;;;5107838;27;20636;-77
2022/01/11 00:06:42;;;;;;;54.13;30.88;;;4.60;99.90;;;;;;5116792;27;20519;-77
2022/01/11 00:09:19;;;;;;;53.10;30.20;;;4.60;99.90;;;;;;5110436;27;20448;-77
2022/01/11 00:11:49;;;;;;;54.20;30.70;;;4.60;99.90;;;;;;5118867;27;20401;-78
2022/01/11 00:14:15;;;;;;;53.95;30.20;;;4.60;99.90;;;;;;5111863;27;20400;-78
2022/01/11 00:16:40;;;;;;;53.67;30.57;;;4.60;99.90;;;;;;5117546;27;20883;-77
2022/01/11 00:19:06;;;;;;;52.38;29.65;;;4.50;99.90;;;;;;5116004;27;20416;-77
2022/01/11 00:21:44;;;;;;;52.87;30.47;;;4.50;99.90;;;;;;5123002;27;21088;-77
2022/01/11 00:24:32;;;;;;;53.50;30.23;;;4.50;99.90;;;;;;5110568;27;20915;-78
2022/01/11 00:27:01;;;;;;;51.70;30.02;;;4.50;99.90;;;;;;5120906;27;20411;-76
2022/01/11 00:29:27;;;;;;;52.67;29.17;;;4.50;99.90;;;;;;5104291;27;20406;-76
2022/01/11 00:31:57;;;;;;;55.25;30.92;;;4.50;99.90;;;;;;5115062;27;20392;-76
2022/01/11 00:34:24;;;;;;;54.50;30.38;;;4.50;99.90;;;;;;5120564;27;20396;-76
2022/01/11 00:36:50;;;;;;;53.47;30.27;;;4.50;99.90;;;;;;5104227;27;21176;-76
2022/01/11 00:39:16;;;;;;;58.20;30.83;;;4.40;99.90;;;;;;5113866;27;20438;-77
2022/01/11 00:41:43;;;;;;;60.43;32.00;;;4.40;99.90;;;;;;5097525;27;20389;-78
2022/01/11 00:44:10;;;;;;;58.80;32.35;;;4.40;99.90;;;;;;5110977;27;20416;-76
2022/01/11 00:46:36;;;;;;;;;;;4.40;99.90;;;;;;5116786;27;20127;-77
2022/01/11 00:49:02;;;;;;;;;;;4.00;99.90;;;;;;5121137;27;20349;-75
2022/01/11 00:51:28;;;;;;;;;;;3.70;99.90;;;;;;5113916;27;19916;-75
2022/01/11 00:53:54;;;;;;;;;;;3.50;99.90;;;;;;5100275;28;20360;-74
2022/01/11 00:56:19;;;;;;;;;;;3.30;99.90;;;;;;5143940;27;19915;-75
2022/01/11 00:58:47;;;;;;;;;;;3.20;99.90;;;;;;5116935;27;20310;-74
2022/01/11 01:01:13;;;;;;;;;;;3.10;99.90;;;;;;5105688;27;19915;-75
2022/01/11 01:03:39;;;;;;;54.20;23.58;;;3.00;99.90;;;;;;5121609;27;20184;-75
2022/01/11 01:06:05;;;;;;;65.93;32.83;;;3.00;99.90;;;;;;5125716;27;20402;-75
2022/01/11 01:08:31;;;;;;;65.65;33.08;;;3.30;99.90;;;;;;5117251;27;20729;-77
2022/01/11 01:10:57;;;;;;;68.73;34.50;;;3.60;99.90;;;;;;5107786;28;20386;-77
2022/01/11 01:13:28;;;;;;;68.68;35.20;;;3.90;99.90;;;;;;5110897;27;20742;-77
2022/01/11 01:15:58;;;;;;;70.65;34.85;;;4.00;99.90;;;;;;5105658;28;20416;-77
2022/01/11 01:18:36;;;;;;;67.63;34.47;;;4.10;99.90;;;;;;5114679;27;20404;-78
2022/01/11 01:21:03;;;;;;;64.90;33.87;;;4.20;99.90;;;;;;5107929;27;20403;-79
2022/01/11 01:23:29;;;;;;;62.00;33.50;;;4.20;99.90;;;;;;5118361;27;20489;-79
2022/01/11 01:25:55;;;;;;;64.60;33.53;;;4.30;99.90;;;;;;5115173;27;20487;-79
2022/01/11 01:28:21;;;;;;;58.60;32.35;;;4.30;99.90;;;;;;5115336;28;20410;-78
2022/01/11 01:30:48;;;;;;;63.63;32.60;;;4.40;99.90;;;;;;5111399;28;20392;-79
2022/01/11 01:33:15;;;;;;;60.35;32.63;;;4.30;99.90;;;;;;5103630;28;20396;-78
2022/01/11 01:35:43;;;;;;;63.20;33.45;;;4.30;99.90;;;;;;5115661;27;20422;-78
2022/01/11 01:38:10;;;;;;;61.88;33.15;;;4.30;99.90;;;;;;5105530;27;20451;-77
2022/01/11 01:40:41;;;;;;;65.25;33.80;;;4.30;99.90;;;;;;5112187;27;20769;-77
2022/01/11 01:43:09;;;;;;;66.10;34.40;;;4.30;99.90;;;;;;5119154;27;20930;-78
2022/01/11 01:45:36;;;;;;;64.53;33.63;;;4.30;99.90;;;;;;5120432;27;20414;-77
2022/01/11 01:48:03;;;;;;;64.50;34.35;;;4.30;99.90;;;;;;5119661;27;20873;-75
2022/01/11 01:50:29;;;;;;;71.40;35.60;;;4.30;99.90;;;;;;5114518;27;20764;-75
2022/01/11 01:52:57;;;;;;;68.85;34.90;;;4.30;99.90;;;;;;5120271;27;20451;-77
2022/01/11 01:55:24;;;;;;;68.82;34.50;;;4.30;99.90;;;;;;5103262;27;20840;-77
2022/01/11 01:57:51;;;;;;;67.63;35.22;;;4.30;99.90;;;;;;5117181;27;20396;-75
2022/01/11 02:00:18;;;;;;;70.47;35.50;;;4.30;99.90;;;;;;5128637;27;20401;-78
2022/01/11 02:02:44;;;;;;;72.20;35.95;;;4.30;99.90;;;;;;5097677;28;20412;-76
2022/01/11 02:05:10;;;;;;;67.33;35.97;;;4.30;99.90;;;;;;5120498;27;20416;-76
2022/01/11 02:07:36;;;;;;;72.43;36.08;;;4.40;99.90;;;;;;5112713;27;20929;-77
2022/01/11 02:10:05;;;;;;;74.57;36.40;;;4.30;99.90;;;;;;5116400;27;20896;-78
2022/01/11 02:12:31;;;;;;;76.05;37.25;;;4.30;99.90;;;;;;5125125;27;20416;-78
2022/01/11 02:14:57;;;;;;;73.50;36.63;;;4.20;99.90;;;;;;5116062;27;20986;-77
2022/01/11 02:17:26;;;;;;;74.20;37.83;;;4.20;99.90;;;;;;5122881;27;20470;-75
2022/01/11 02:19:55;;;;;;;79.75;38.15;;;4.20;99.90;;;;;;5120710;27;20409;-77
2022/01/11 02:22:20;;;;;;;80.38;37.85;;;4.20;99.90;;;;;;5122463;27;20405;-77
2022/01/11 02:24:46;;;;;;;81.40;38.53;;;4.20;99.90;;;;;;5116720;27;20886;-78
2022/01/11 02:27:12;;;;;;;78.60;37.72;;;4.20;99.90;;;;;;5115893;27;20911;-77
2022/01/11 02:29:42;;;;;;;82.80;38.17;;;4.30;99.90;;;;;;5115728;27;20482;-78
2022/01/11 02:32:08;;;;;;;83.78;39.33;;;4.30;99.90;;;;;;5119091;27;20400;-78
2022/01/11 02:34:34;;;;;;;86.10;40.30;;;4.20;99.90;;;;;;5114508;27;20408;-77
2022/01/11 02:37:05;;;;;;;88.82;40.45;;;4.20;99.90;;;;;;5096276;28;20403;-75
2022/01/11 02:39:40;;;;;;;85.25;40.22;;;4.20;99.90;;;;;;5106851;28;20412;-78
2022/01/11 02:42:18;;;;;;;86.53;39.83;;;4.20;99.90;;;;;;5116980;27;20419;-77
2022/01/11 02:44:43;;;;;;;85.55;39.95;;;4.20;99.90;;;;;;5120128;27;20434;-77
2022/01/11 02:47:15;;;;;;;90.37;40.83;;;4.20;99.90;;;;;;5124546;27;20430;-77
2022/01/11 02:49:42;;;;;;;90.07;40.72;;;4.20;99.90;;;;;;5113080;27;20789;-77
2022/01/11 02:52:15;;;;;;;94.30;41.38;;;4.20;99.90;;;;;;5112122;27;20386;-77
2022/01/11 02:54:46;;;;;;;88.00;39.10;;;4.20;99.90;;;;;;5118250;27;20912;-77
2022/01/11 02:57:16;;;;;;;97.07;42.53;;;4.20;99.90;;;;;;5108358;27;21146;-76
2022/01/11 02:59:43;;;;;;;95.05;41.42;;;4.20;99.90;;;;;;5113825;27;20408;-75
2022/01/11 03:02:10;;;;;;;96.72;42.38;;;4.20;99.90;;;;;;5108040;27;20805;-75
2022/01/11 03:04:37;;;;;;;99.35;42.40;;;4.30;99.90;;;;;;5111406;27;20427;-77
2022/01/11 03:07:03;;;;;;;99.05;42.72;;;4.30;99.90;;;;;;5127375;27;20489;-75
2022/01/11 03:09:48;;;;;;;103.65;43.00;;;4.30;99.90;;;;;;5115578;27;20437;-75
2022/01/11 03:12:15;;;;;;;97.38;42.35;;;4.30;99.90;;;;;;5117511;27;20402;-76
2022/01/11 03:14:43;;;;;;;100.43;43.30;;;4.30;99.90;;;;;;5115314;27;20422;-76
2022/01/11 03:17:09;;;;;;;103.95;43.83;;;4.30;99.90;;;;;;5113357;27;20414;-78
2022/01/11 03:19:34;;;;;;;102.57;44.17;;;4.40;99.90;;;;;;5117057;27;20819;-76
2022/01/11 03:22:01;;;;;;;105.25;44.45;;;4.40;99.90;;;;;;5110301;27;20400;-77
2022/01/11 03:24:27;;;;;;;105.13;44.27;;;4.40;99.90;;;;;;5118574;27;20461;-76
2022/01/11 03:26:53;;;;;;;100.10;42.97;;;4.30;99.90;;;;;;5093737;27;20976;-76
2022/01/11 03:29:18;;;;;;;102.50;43.40;;;4.30;99.90;;;;;;5101162;28;20475;-76
2022/01/11 03:31:44;;;;;;;105.67;44.63;;;4.30;99.90;;;;;;5113953;27;20385;-75
2022/01/11 03:34:17;;;;;;;98.78;43.95;;;4.20;99.90;;;;;;5104867;28;20485;-77
2022/01/11 03:36:45;;;;;;;105.88;43.40;;;4.20;99.90;;;;;;5097026;28;20497;-76
2022/01/11 03:39:11;;;;;;;107.85;44.33;;;4.30;99.90;;;;;;5108779;27;20947;-77
2022/01/11 03:41:36;;;;;;;102.78;43.53;;;4.30;99.90;;;;;;5099208;28;20402;-77
2022/01/11 03:44:04;;;;;;;104.45;43.88;;;4.30;99.90;;;;;;5119346;27;20415;-77
2022/01/11 03:46:29;;;;;;;104.35;44.78;;;4.30;99.90;;;;;;5118601;27;20475;-77
2022/01/11 03:48:55;;;;;;;105.47;44.87;;;4.30;99.90;;;;;;5109224;27;20905;-77
2022/01/11 03:51:22;;;;;;;105.87;45.73;;;4.30;99.90;;;;;;5113556;27;20500;-78
2022/01/11 03:54:15;;;;;;;106.32;45.05;;;4.30;99.90;;;;;;5098188;27;21108;-78
2022/01/11 03:57:01;;;;;;;105.13;45.70;;;4.30;99.90;;;;;;5116557;27;20404;-77
2022/01/11 03:59:31;;;;;;;104.97;45.27;;;4.30;99.90;;;;;;5113963;27;20412;-76
2022/01/11 04:01:56;;;;;;;108.78;45.63;;;4.30;99.90;;;;;;5118452;27;20918;-76
2022/01/11 04:04:22;;;;;;;104.80;44.87;;;4.20;99.90;;;;;;5110124;27;20407;-76
2022/01/11 04:06:48;;;;;;;103.20;44.45;;;4.20;99.90;;;;;;5115392;27;20722;-76
2022/01/11 04:09:15;;;;;;;104.35;45.25;;;4.20;99.90;;;;;;5094071;28;20421;-75
2022/01/11 04:11:44;;;;;;;107.10;45.47;;;4.20;99.90;;;;;;5122219;27;20464;-77
2022/01/11 04:14:10;;;;;;;103.75;45.13;;;4.30;99.90;;;;;;5113815;27;20447;-77
2022/01/11 04:16:36;;;;;;;111.83;47.23;;;4.30;99.90;;;;;;5113586;27;20912;-76
2022/01/11 04:19:04;;;;;;;109.55;47.08;;;4.30;99.90;;;;;;5101161;28;20400;-75
2022/01/11 04:21:30;;;;;;;110.55;46.92;;;4.30;99.90;;;;;;5114301;27;20391;-77
2022/01/11 04:23:58;;;;;;;106.57;45.78;;;4.30;99.90;;;;;;5117884;27;20495;-76
2022/01/11 04:26:25;;;;;;;102.82;46.42;;;4.30;99.90;;;;;;5119066;27;20712;-76
2022/01/11 04:28:51;;;;;;;107.57;46.38;;;4.30;99.90;;;;;;5110351;27;20416;-76
2022/01/11 04:31:17;;;;;;;106.35;46.70;;;4.30;99.90;;;;;;5125723;27;20382;-77
2022/01/11 04:33:44;;;;;;;107.90;45.60;;;4.30;99.90;;;;;;5111001;27;20412;-76
2022/01/11 04:36:12;;;;;;;105.43;47.00;;;4.30;99.90;;;;;;5090936;28;20493;-76
2022/01/11 04:38:39;;;;;;;106.38;45.78;;;4.30;99.90;;;;;;5110500;27;20407;-76
2022/01/11 04:41:05;;;;;;;107.57;47.05;;;4.30;99.90;;;;;;5119372;27;20408;-77
2022/01/11 04:43:37;;;;;;;106.10;46.05;;;4.30;99.90;;;;;;5109066;27;20415;-77
2022/01/11 04:46:04;;;;;;;104.10;46.88;;;4.30;99.90;;;;;;5138882;27;20430;-77
2022/01/11 04:48:32;;;;;;;107.05;47.40;;;4.30;99.90;;;;;;5110980;27;20877;-77
2022/01/11 04:51:01;;;;;;;105.60;46.70;;;4.30;99.90;;;;;;5124689;27;21058;-76
2022/01/11 04:53:27;;;;;;;110.13;47.35;;;4.30;99.90;;;;;;5118071;27;20531;-77
2022/01/11 04:55:56;;;;;;;108.10;47.53;;;4.30;99.90;;;;;;5118869;27;20456;-77
2022/01/11 04:58:23;;;;;;;106.18;46.53;;;4.30;99.90;;;;;;5099344;27;20412;-77
2022/01/11 05:00:49;;;;;;;107.85;46.95;;;4.30;99.90;;;;;;5108709;27;20726;-77
2022/01/11 05:03:16;;;;;;;99.25;44.63;;;4.30;99.90;;;;;;5096543;27;20543;-77
2022/01/11 05:05:43;;;;;;;103.93;46.60;;;4.30;99.90;;;;;;5109740;27;20491;-76
2022/01/11 05:08:09;;;;;;;105.87;45.33;;;4.30;99.90;;;;;;5111216;27;20515;-75
2022/01/11 05:10:35;;;;;;;101.72;44.03;;;4.30;99.90;;;;;;5112286;27;20922;-76
2022/01/11 05:13:00;;;;;;;99.73;44.23;;;4.30;99.90;;;;;;5123353;27;20976;-77
2022/01/11 05:15:28;;;;;;;90.35;42.80;;;4.20;99.90;;;;;;5118999;27;20456;-77
2022/01/11 05:17:54;;;;;;;90.43;42.17;;;4.20;99.90;;;;;;5119244;27;20390;-77
2022/01/11 05:20:20;;;;;;;93.82;43.58;;;4.10;99.90;;;;;;5104186;27;20490;-77
2022/01/11 05:22:47;;;;;;;94.82;43.92;;;4.20;99.90;;;;;;5117749;27;20992;-77
2022/01/11 05:25:14;;;;;;;91.43;43.60;;;4.20;99.90;;;;;;5117633;27;20459;-77
2022/01/11 05:27:41;;;;;;;91.00;43.15;;;4.10;99.90;;;;;;5102308;28;20416;-77
2022/01/11 05:30:09;;;;;;;89.88;42.72;;;4.20;99.90;;;;;;5114287;27;20570;-76
2022/01/11 05:32:35;;;;;;;92.30;42.33;;;4.20;99.90;;;;;;5127253;27;20470;-76
2022/01/11 05:35:06;;;;;;;91.93;43.75;;;4.20;99.90;;;;;;5098605;28;20771;-77
2022/01/11 05:37:33;;;;;;;90.72;42.63;;;4.20;99.90;;;;;;5097841;28;20483;-76
2022/01/11 05:39:59;;;;;;;88.35;43.50;;;4.10;99.90;;;;;;5115305;28;20959;-75
2022/01/11 05:42:28;;;;;;;90.35;43.95;;;4.10;99.90;;;;;;5112955;28;20419;-74
2022/01/11 05:44:54;;;;;;;90.70;44.22;;;4.10;99.90;;;;;;5091746;28;20413;-76
2022/01/11 05:47:21;;;;;;;90.88;42.65;;;4.10;99.90;;;;;;5097373;28;20438;-75
2022/01/11 05:49:47;;;;;;;94.50;44.37;;;4.10;99.90;;;;;;5107476;28;20440;-75
2022/01/11 05:52:13;;;;;;;92.18;44.53;;;4.10;99.90;;;;;;5113896;28;20398;-77
2022/01/11 05:54:38;;;;;;;96.25;45.15;;;4.10;99.90;;;;;;5110651;28;20413;-74
2022/01/11 05:57:05;;;;;;;91.55;45.00;;;4.10;99.90;;;;;;5117739;28;20395;-74
2022/01/11 05:59:30;;;;;;;99.10;45.30;;;4.10;99.90;;;;;;5106553;28;20981;-74
2022/01/11 06:01:56;;;;;;;97.90;46.10;;;4.10;99.90;;;;;;5108468;28;20416;-74
2022/01/11 06:04:24;;;;;;;92.93;45.10;;;4.10;99.90;;;;;;5108382;28;20511;-74
2022/01/11 06:06:51;;;;;;;94.37;44.60;;;4.00;99.90;;;;;;5091128;28;20396;-74
2022/01/11 06:09:17;;;;;;;93.82;44.90;;;4.00;99.90;;;;;;5105575;28;20757;-75
2022/01/11 06:11:43;;;;;;;91.35;44.35;;;4.00;99.90;;;;;;5117727;28;20399;-74
2022/01/11 06:14:08;;;;;;;95.70;45.80;;;4.00;99.90;;;;;;5111563;28;20850;-74
2022/01/11 06:16:34;;;;;;;95.03;44.87;;;4.00;99.90;;;;;;5108598;28;20451;-75
2022/01/11 06:19:01;;;;;;;97.32;44.55;;;4.00;99.90;;;;;;5111481;28;20924;-76
2022/01/11 06:21:46;;;;;;;94.70;46.07;;;4.10;99.90;;;;;;5104490;28;20432;-74
2022/01/11 06:24:11;;;;;;;97.38;45.30;;;4.10;99.90;;;;;;5110271;27;20942;-75
2022/01/11 06:26:37;;;;;;;94.35;44.85;;;4.10;99.90;;;;;;5110149;28;20392;-75
2022/01/11 06:29:03;;;;;;;97.53;45.97;;;4.10;99.90;;;;;;5118151;27;20957;-75
2022/01/11 06:31:34;;;;;;;100.60;46.60;;;4.10;99.90;;;;;;5111396;27;20387;-75
2022/01/11 06:34:00;;;;;;;106.50;47.72;;;4.10;99.90;;;;;;5109596;27;21078;-74
2022/01/11 06:36:26;;;;;;;105.28;47.95;;;4.10;99.90;;;;;;5113065;27;20411;-75
2022/01/11 06:38:51;;;;;;;104.93;47.20;;;4.10;99.90;;;;;;5111265;27;20416;-74
2022/01/11 06:41:23;;;;;;;103.78;47.70;;;4.10;99.90;;;;;;5113746;27;20911;-75
2022/01/11 06:43:50;;;;;;;101.40;46.80;;;4.10;99.90;;;;;;5114378;27;20426;-74
2022/01/11 06:46:17;;;;;;;97.75;46.42;;;4.10;99.90;;;;;;5122542;27;20399;-74
2022/01/11 06:48:43;;;;;;;104.90;47.22;;;4.10;99.90;;;;;;5103354;28;20804;-72
2022/01/11 06:51:09;;;;;;;99.25;46.60;;;4.10;99.90;;;;;;5098731;27;20399;-73
2022/01/11 06:53:45;;;;;;;89.63;44.00;;;4.10;99.90;;;;;;5115781;27;20470;-72
2022/01/11 06:56:11;;;;;;;92.72;44.85;;;4.20;99.90;;;;;;5130009;27;20402;-78
2022/01/11 06:58:38;;;;;;;96.20;48.20;;;4.10;99.90;;;;;;5115923;27;20927;-72
2022/01/11 07:01:05;;;;;;;93.07;44.67;;;4.10;99.90;;;;;;5093613;28;20439;-75
2022/01/11 07:03:32;;;;;;;92.72;44.72;;;4.20;99.90;;;;;;5120792;27;20477;-75
2022/01/11 07:06:16;;;;;;;89.00;44.72;;;4.20;99.90;;;;;;5114342;27;20462;-74
2022/01/11 07:08:42;;;;;;;87.20;43.42;;;4.10;99.90;;;;;;5121784;27;20400;-74
2022/01/11 07:11:11;;;;;;;89.67;44.67;;;4.10;99.90;;;;;;5119215;27;20433;-73
2022/01/11 07:13:37;;;;;;;86.63;43.17;;;4.10;99.90;;;;;;5097192;28;20737;-73
2022/01/11 07:16:04;;;;;;;90.63;44.17;;;4.10;99.90;;;;;;5114064;27;20407;-73
2022/01/11 07:18:30;;;;;;;85.20;42.78;;;4.10;99.90;;;;;;5124536;27;20430;-74
2022/01/11 07:20:59;;;;;;;81.57;42.00;;;4.10;99.90;;;;;;5095446;28;20427;-75
2022/01/11 07:23:28;;;;;;;86.25;43.08;;;4.10;99.90;;;;;;5117404;27;20402;-72
2022/01/11 07:25:53;;;;;;;83.57;43.10;;;4.10;99.90;;;;;;5092682;27;20411;-73
2022/01/11 07:28:23;;;;;;;83.95;42.40;;;4.00;99.90;;;;;;5117765;27;20764;-73
2022/01/11 07:30:51;;;;;;;80.65;41.45;;;4.10;99.90;;;;;;5117343;27;20405;-74
2022/01/11 07:33:17;;;;;;;83.53;41.72;;;4.00;99.90;;;;;;5108563;27;20389;-73
2022/01/11 07:35:45;;;;;;;74.85;40.42;;;4.00;99.90;;;;;;5107490;27;20423;-74
2022/01/11 07:38:11;;;;;;;79.93;40.90;;;4.00;99.90;;;;;;5104819;27;20822;-74
2022/01/11 07:40:38;;;;;;;78.07;40.30;;;4.00;99.90;;;;;;5111927;27;20475;-73
2022/01/11 07:43:16;;;;;;;84.50;41.58;;;4.00;99.90;;;;;;5108729;27;20912;-74
2022/01/11 07:45:51;;;;;;;78.28;41.13;;;4.00;99.90;;;;;;5112560;27;20505;-76
2022/01/11 07:48:19;;;;;;;76.63;39.92;;;4.10;99.90;;;;;;5122041;27;20407;-74
2022/01/11 07:50:52;;;;;;;74.68;40.08;;;4.00;99.90;;;;;;5112835;27;20398;-71
2022/01/11 07:53:18;;;;;;;77.22;38.47;;;4.00;99.90;;;;;;5116007;27;20394;-73
2022/01/11 07:55:49;;;;;;;76.93;38.65;;;4.10;99.90;;;;;;5116907;27;20402;-73
2022/01/11 07:58:17;;;;;;;75.32;38.42;;;4.00;99.90;;;;;;5118060;27;20411;-73
2022/01/11 08:00:44;;;;;;;69.20;37.38;;;4.00;99.90;;;;;;5098641;27;20487;-72
2022/01/11 08:03:14;;;;;;;70.47;36.60;;;4.00;99.90;;;;;;5109078;27;20502;-72
2022/01/11 08:06:03;;;;;;;66.03;36.42;;;4.00;99.90;;;;;;5113924;27;20457;-71
2022/01/11 08:08:30;;;;;;;68.32;36.92;;;4.00;99.90;;;;;;5109185;27;20971;-72
2022/01/11 08:10:58;;;;;;;63.43;35.10;;;4.00;99.90;;;;;;5090394;27;20907;-73
2022/01/11 08:13:24;;;;;;;69.03;36.60;;;4.00;99.90;;;;;;5118304;27;20402;-75
2022/01/11 08:15:50;;;;;;;64.90;35.60;;;4.00;99.90;;;;;;5119345;27;20406;-73
2022/01/11 08:18:16;;;;;;;64.00;34.63;;;4.00;99.90;;;;;;5117215;27;21019;-74
2022/01/11 08:20:44;;;;;;;61.85;34.72;;;3.90;99.90;;;;;;5097981;27;20444;-76
2022/01/11 08:23:11;;;;;;;64.87;35.00;;;3.90;99.90;;;;;;5103279;27;20817;-74
2022/01/11 08:25:37;;;;;;;60.65;34.05;;;3.90;99.90;;;;;;5116499;27;20402;-74
2022/01/11 08:28:04;;;;;;;61.30;33.22;;;3.80;99.90;;;;;;5100174;27;20430;-74
2022/01/11 08:30:32;;;;;;;61.22;33.50;;;3.80;99.90;;;;;;5096629;27;20409;-74
2022/01/11 08:33:04;;;;;;;59.28;32.75;;;3.80;99.90;;;;;;5109246;27;20409;-75
2022/01/11 08:35:34;;;;;;;58.45;32.72;;;3.80;99.90;;;;;;5113184;27;20456;-74
2022/01/11 08:38:00;;;;;;;59.45;32.80;;;3.80;99.90;;;;;;5115378;27;20445;-75
2022/01/11 08:40:26;;;;;;;57.67;32.33;;;3.80;99.90;;;;;;5114571;27;20406;-75
2022/01/11 08:42:58;;;;;;;56.63;31.85;;;3.70;99.90;;;;;;5115863;27;20417;-74
2022/01/11 08:45:25;;;;;;;53.42;30.48;;;3.80;99.90;;;;;;5113746;27;20411;-74
2022/01/11 08:47:59;;;;;;;55.90;31.20;;;3.70;99.90;;;;;;5114320;27;20412;-76
2022/01/11 08:50:26;;;;;;;58.97;31.35;;;3.80;99.90;;;;;;5117920;27;20895;-75
2022/01/11 08:52:52;;;;;;;52.58;31.13;;;3.80;99.90;;;;;;5109791;27;20395;-74
2022/01/11 08:55:22;;;;;;;54.90;30.95;;;3.80;99.90;;;;;;5091504;28;20400;-73
2022/01/11 08:57:49;;;;;;;52.47;30.60;;;3.80;99.90;;;;;;5115548;27;20403;-72
2022/01/11 09:00:18;;;;;;;53.13;30.20;;;3.80;99.90;;;;;;5102238;27;20406;-73
2022/01/11 09:02:51;;;;;;;51.03;30.13;;;3.80;99.90;;;;;;5114519;27;20404;-73
2022/01/11 09:05:18;;;;;;;51.00;29.85;;;3.90;99.90;;;;;;5091106;28;20415;-74
2022/01/11 09:07:44;;;;;;;51.45;31.08;;;3.90;99.90;;;;;;5090513;27;20726;-74
2022/01/11 09:10:10;;;;;;;50.28;30.15;;;4.00;99.90;;;;;;5096353;28;20385;-74
2022/01/11 09:12:37;;;;;;;49.97;29.73;;;4.00;99.90;;;;;;5109129;27;20408;-74
2022/01/11 09:15:07;;;;;;;48.90;29.23;;;4.00;99.90;;;;;;5116040;27;20465;-73
2022/01/11 09:17:34;;;;;;;48.10;29.50;;;4.00;99.90;;;;;;5111428;27;20399;-74
2022/01/11 09:20:02;;;;;;;49.33;29.08;;;3.90;99.90;;;;;;5109565;27;20437;-74
2022/01/11 09:22:28;;;;;;;48.33;29.13;;;4.00;99.90;;;;;;5116643;27;20748;-72
2022/01/11 09:24:56;;;;;;;49.35;29.08;;;3.90;99.90;;;;;;5114131;27;20501;-73
2022/01/11 09:27:25;;;;;;;51.07;29.87;;;4.00;99.90;;;;;;5118589;27;20475;-75
2022/01/11 09:29:51;;;;;;;51.65;29.80;;;4.00;99.90;;;;;;5111073;27;20458;-75
2022/01/11 09:32:18;;;;;;;47.75;28.65;;;4.00;99.90;;;;;;5111377;27;20404;-76
2022/01/11 09:34:46;;;;;;;50.20;29.65;;;4.00;99.90;;;;;;5094277;28;20930;-77
2022/01/11 09:37:20;;;;;;;49.22;28.50;;;4.10;99.90;;;;;;5108315;28;20436;-74
2022/01/11 09:39:47;;;;;;;46.22;28.65;;;4.10;99.90;;;;;;5109814;28;20435;-74
2022/01/11 09:42:17;;;;;;;46.30;27.40;;;4.20;99.90;;;;;;5110737;28;20424;-74
2022/01/11 09:44:43;;;;;;;41.22;25.88;;;4.30;99.90;;;;;;5102166;28;20805;-75
2022/01/11 09:47:12;;;;;;;34.72;22.75;;;5.00;99.90;;;;;;5094466;28;20400;-75
2022/01/11 09:49:40;;;;;;;37.00;22.42;;;6.30;99.90;;;;;;5115568;28;20992;-77
2022/01/11 09:52:09;;;;;;;32.97;22.08;;;7.70;99.90;;;;;;5111800;28;20422;-75
2022/01/11 09:54:46;;;;;;;32.40;21.52;;;9.10;99.00;;;;;;5111228;28;20415;-76
2022/01/11 09:57:13;;;;;;;30.15;21.08;;;10.30;94.90;;;;;;5116669;28;20411;-76
2022/01/11 09:59:40;;;;;;;30.52;20.70;;;11.00;92.20;;;;;;5104216;27;20414;-75
2022/01/11 10:02:24;;;;;;;28.05;19.63;;;11.70;90.50;;;;;;5108555;28;20491;-73
2022/01/11 10:05:08;;;;;;;28.55;19.73;;;12.40;85.60;;;;;;5107796;28;20462;-75
2022/01/11 10:08:23;;;;;;;27.35;19.10;;;12.90;81.70;;;;;;5108854;27;20407;-76
2022/01/11 10:10:49;;;;;;;26.38;18.98;;;13.50;77.70;;;;;;5121999;27;20395;-75
2022/01/11 10:13:33;;;;;;;29.13;20.23;;;13.90;74.60;;;;;;5119816;27;20507;-75
2022/01/11 10:16:26;;;;;;;28.85;19.98;;;14.20;70.30;;;;;;5115781;27;20421;-76
2022/01/11 10:18:57;;;;;;;29.60;20.73;;;14.20;67.60;;;;;;5117074;27;20411;-75
2022/01/11 10:21:40;;;;;;;31.27;21.17;;;13.90;67.60;;;;;;5123106;27;20424;-75
2022/01/11 10:24:32;;;;;;;32.33;21.90;;;13.10;70.00;;;;;;5100719;28;20764;-75
2022/01/11 10:27:05;;;;;;;35.38;21.88;;;12.20;73.20;;;;;;5109958;28;20392;-75
2022/01/11 10:29:46;;;;;;;36.35;23.13;;;11.30;77.60;;;;;;5114641;27;20495;-75
2022/01/11 10:32:25;;;;;;;34.20;22.90;;;10.50;81.50;;;;;;5110461;28;20865;-74
2022/01/11 10:35:03;;;;;;;40.50;23.35;;;9.80;84.20;;;;;;5117718;27;20454;-74
2022/01/11 10:37:36;;;;;;;38.20;21.45;;;9.20;87.70;;;;;;5104061;27;20203;-76
2022/01/11 10:40:07;;;;;;;;;;;8.30;90.20;;;;;;5111264;27;20088;-74
2022/01/11 10:42:34;;;;;;;;;;;7.50;91.10;;;;;;5113349;27;19919;-75
2022/01/11 10:45:04;;;;;;;;;;;7.00;92.50;;;;;;5121012;27;20715;-75
2022/01/11 10:47:34;;;;;;;;;;;6.60;93.60;;;;;;5127499;27;19907;-76
2022/01/11 10:50:04;;;;;;;;;;;6.30;94.30;;;;;;5110507;28;20297;-75
2022/01/11 10:52:32;;;;;;;;;;;6.20;94.90;;;;;;5109949;27;19926;-76
2022/01/11 10:55:14;;;;;;;;;;;6.10;95.10;;;;;;5109462;28;20082;-73
2022/01/11 10:57:41;;;;;;;;;;;6.00;95.60;;;;;;5118276;27;19915;-76
2022/01/11 11:00:10;;;;;;;;;;;6.00;95.90;;;;;;5121345;27;20348;-75
2022/01/11 11:02:36;;;;;;;;;;;6.00;96.40;;;;;;5100682;28;19995;-75
2022/01/11 11:05:12;;;;;;;;;;;6.10;96.60;;;;;;5117777;27;20015;-77
2022/01/11 11:07:38;;;;;;;;;;;6.20;97.10;;;;;;5120907;27;19907;-78
2022/01/11 11:10:08;;;;;;;;;;;6.20;97.20;;;;;;5115453;27;20038;-77
2022/01/11 11:12:34;;;;;;;;;;;6.10;97.00;;;;;;5121341;27;20370;-78
2022/01/11 11:15:03;;;;;;;;;;;6.20;97.20;;;;;;5125512;27;19965;-77
2022/01/11 11:17:36;;;;;;;;;;;6.20;97.40;;;;;;5123625;27;19955;-78
2022/01/11 11:20:10;;;;;;;;;;;6.20;97.70;;;;;;5128284;27;19908;-77
2022/01/11 11:22:35;;;;;;;;;;;6.10;97.50;;;;;;5119444;27;19911;-77
2022/01/11 11:25:02;;;;;;;;;;;6.20;97.50;;;;;;5113072;27;20288;-78
2022/01/11 11:27:30;;;;;;;;;;;6.30;98.10;;;;;;5124338;27;19927;-78
2022/01/11 11:29:57;;;;;;;;;;;6.50;98.10;;;;;;5130423;27;19911;-79
2022/01/11 11:32:23;;;;;;;;;;;6.80;98.10;;;;;;5120455;27;20398;-77
2022/01/11 11:34:49;;;;;;;;;;;6.90;97.70;;;;;;5142456;27;19990;-78
2022/01/11 11:37:33;;;;;;;;;;;6.90;97.70;;;;;;5130312;27;19907;-77
2022/01/11 11:39:59;;;;;;;;;;;6.90;97.40;;;;;;5102589;27;19950;-77
2022/01/11 11:42:26;;;;;;;;;;;6.70;97.30;;;;;;5119428;27;20402;-77
2022/01/11 11:44:52;;;;;;;;;;;6.60;97.40;;;;;;5124271;27;19915;-77
2022/01/11 11:47:27;;;;;;;;;;;6.50;97.60;;;;;;5115597;27;20396;-74
2022/01/11 11:49:54;;;;;;;;;;;6.30;97.70;;;;;;5142417;27;19915;-75
2022/01/11 11:52:35;;;;;;;;;;;6.20;97.90;;;;;;5109799;28;19972;-74
2022/01/11 11:55:03;;;;;;;;;;;6.10;97.90;;;;;;5125595;27;19915;-74
2022/01/11 11:57:31;;;;;;;;;;;6.00;98.30;;;;;;5117094;27;19911;-75
2022/01/11 11:59:58;;;;;;;;;;;5.90;98.50;;;;;;5119267;27;19927;-74
2022/01/11 12:02:43;;;;;;;;;;;5.80;98.70;;;;;;5111820;27;20310;-74
2022/01/11 12:05:27;;;;;;;;;;;5.80;98.30;;;;;;5113579;27;20268;-75
2022/01/11 12:07:53;;;;;;;;;;;5.80;98.90;;;;;;5114012;27;20346;-74
2022/01/11 12:10:29;;;;;;;;;;;5.80;98.80;;;;;;5115900;27;19911;-75
2022/01/11 12:12:55;;;;;;;;;;;5.80;98.90;;;;;;5116288;27;20383;-74
2022/01/11 12:15:21;;;;;;;;;;;5.90;99.10;;;;;;5116161;27;19943;-74
2022/01/11 12:18:07;;;;;;;;;;;5.90;99.10;;;;;;5126094;27;19969;-74
2022/01/11 12:20:42;;;;;;;;;;;6.00;99.10;;;;;;5091027;27;19934;-74
2022/01/11 12:23:08;;;;;;;;;;;6.00;99.00;;;;;;5113321;27;19915;-75
2022/01/11 12:25:42;;;;;;;;;;;6.10;99.10;;;;;;5108884;28;19951;-75
2022/01/11 12:28:14;;;;;;;;;;;6.10;99.60;;;;;;5123549;27;19916;-74
2022/01/11 12:30:40;;;;;;;;;;;6.20;99.90;;;;;;5110300;27;20384;-75
2022/01/11 12:33:11;;;;;;;;;;;6.20;99.90;;;;;;5116775;27;20046;-74
2022/01/11 12:35:50;;;;;;;;;;;6.20;99.90;;;;;;5142074;27;20734;-75
2022/01/11 12:38:16;;;;;;;;;;;6.30;99.90;;;;;;5118853;27;19914;-72
2022/01/11 12:40:43;;;;;;;;;;;6.30;99.90;;;;;;5120818;27;20577;-74
2022/01/11 12:43:20;;;;;;;;;;;6.40;99.90;;;;;;5118393;27;19966;-74
2022/01/11 12:46:05;;;;;;;;;;;6.50;99.90;;;;;;5119704;27;19998;-74
2022/01/11 12:48:44;;;;;;;;;;;6.50;99.90;;;;;;5139406;27;19992;-76
2022/01/11 12:51:10;;;;;;;;;;;6.60;99.90;;;;;;5111266;28;19907;-74
2022/01/11 12:53:35;;;;;;;;;;;6.60;99.90;;;;;;5116295;27;20003;-78
2022/01/11 12:56:01;;;;;;;;;;;6.80;99.90;;;;;;5122605;27;19952;-77
2022/01/11 12:58:27;;;;;;;;;;;6.80;99.90;;;;;;5117105;27;20387;-77
2022/01/11 13:00:53;;;;;;;;;;;6.80;99.80;;;;;;5115392;27;19926;-76
2022/01/11 13:03:18;;;;;;;;;;;6.90;99.70;;;;;;5114454;27;19912;-76
2022/01/11 13:05:44;;;;;;;;;;;6.90;99.50;;;;;;5117989;27;19988;-77